TAP65 LPPT-FACT
Flight info
| Callsign | TAP65 |
|---|---|
| Flight time | N/A |
| Altitude | 35000 |
| Route | DUZOP DCT AMSEL UR722 SAK UW900 OZT UJ744 BAGBO UM629 BAKAB/N0476F370 UM629 KELEX UR984 LAG UR603 STM UA400 EBSEN/N0471F390 UA400 VNA UN187 VEDRY/N0438F240 R987 ERDAS ERDAS1B |
| Aircraft | A343/H-SDE2E3FGHIJ4J5M1RWXY/LB1D1 |
Departure
| Time | 2026-05-06 00:00 |
|---|---|
| Airport | Lisbon Humberto Delgado Airport (LPPT) |
Arrival
| Time | N/A |
|---|---|
| Airport | Cape Town International Airport (FACT) |
| Time | Latitude | Longitude | Altitude | Speed | Heading |
|---|---|---|---|---|---|
| 2026-05-05 23:52 | 38.76755 | -9.13983 | 352 ft | 0 kts | 78° |
| 2026-05-05 23:55 | 38.76754 | -9.13989 | 346 ft | 3 kts | 78° |
| 2026-05-05 23:55 | 38.76750 | -9.14018 | 350 ft | 4 kts | 72° |
| 2026-05-05 23:55 | 38.76737 | -9.14040 | 357 ft | 4 kts | 7° |
| 2026-05-05 23:55 | 38.76712 | -9.14037 | 357 ft | 4 kts | 346° |
| 2026-05-05 23:56 | 38.76705 | -9.14035 | 357 ft | 0 kts | 348° |
| 2026-05-05 23:58 | 38.76672 | -9.14373 | 335 ft | 0 kts | 22° |
| 2026-05-05 23:59 | 38.76704 | -9.14357 | 336 ft | 23 kts | 22° |
| 2026-05-05 23:59 | 38.77049 | -9.14179 | 361 ft | 82 kts | 22° |
| 2026-05-05 23:59 | 38.77731 | -9.13809 | 370 ft | 130 kts | 22° |
| 2026-05-05 23:59 | 38.78701 | -9.13295 | 378 ft | 170 kts | 20° |
| 2026-05-06 00:00 | 38.79779 | -9.12659 | 954 ft | 169 kts | 25° |
| 2026-05-06 00:00 | 38.80781 | -9.11893 | 1712 ft | 166 kts | 30° |
| 2026-05-06 00:00 | 38.81748 | -9.11094 | 2217 ft | 169 kts | 27° |
| 2026-05-06 00:00 | 38.82804 | -9.10291 | 2504 ft | 184 kts | 25° |
| 2026-05-06 00:01 | 38.83972 | -9.09451 | 2738 ft | 204 kts | 25° |
| 2026-05-06 00:01 | 38.85275 | -9.08540 | 2990 ft | 222 kts | 25° |
| 2026-05-06 00:01 | 38.86681 | -9.07540 | 3369 ft | 238 kts | 30° |
| 2026-05-06 00:01 | 38.87917 | -9.06046 | 3855 ft | 254 kts | 54° |
| 2026-05-06 00:02 | 38.88420 | -9.03832 | 4400 ft | 270 kts | 88° |
| 2026-05-06 00:02 | 38.87910 | -9.01491 | 5052 ft | 279 kts | 114° |
| 2026-05-06 00:02 | 38.86922 | -8.99332 | 5717 ft | 284 kts | 124° |
| 2026-05-06 00:02 | 38.85495 | -8.97559 | 6305 ft | 290 kts | 148° |
| 2026-05-06 00:03 | 38.83594 | -8.96733 | 6917 ft | 291 kts | 176° |
| 2026-05-06 00:03 | 38.81625 | -8.97061 | 7504 ft | 290 kts | 200° |
| 2026-05-06 00:03 | 38.79744 | -8.98014 | 8160 ft | 290 kts | 205° |
| 2026-05-06 00:03 | 38.77886 | -8.99047 | 8764 ft | 292 kts | 205° |
| 2026-05-06 00:04 | 38.76012 | -9.00084 | 9361 ft | 294 kts | 205° |
| 2026-05-06 00:04 | 38.74126 | -9.01115 | 9983 ft | 296 kts | 205° |
| 2026-05-06 00:04 | 38.72210 | -9.02153 | 10402 ft | 303 kts | 205° |
| 2026-05-06 00:04 | 38.70221 | -9.03226 | 10654 ft | 316 kts | 205° |
| 2026-05-06 00:05 | 38.65999 | -9.05490 | 11141 ft | 341 kts | 204° |
| 2026-05-06 00:05 | 38.63800 | -9.06666 | 11380 ft | 353 kts | 204° |
| 2026-05-06 00:05 | 38.61502 | -9.07894 | 11617 ft | 364 kts | 205° |
| 2026-05-06 00:06 | 38.59131 | -9.09160 | 11938 ft | 372 kts | 205° |
| 2026-05-06 00:06 | 38.56723 | -9.10444 | 12395 ft | 377 kts | 205° |
| 2026-05-06 00:06 | 38.54293 | -9.11738 | 12875 ft | 380 kts | 205° |
| 2026-05-06 00:06 | 38.51846 | -9.13039 | 13426 ft | 382 kts | 204° |
| 2026-05-06 00:07 | 38.49389 | -9.14341 | 13957 ft | 384 kts | 204° |
| 2026-05-06 00:07 | 38.46875 | -9.15536 | 14445 ft | 388 kts | 198° |
| 2026-05-06 00:07 | 38.44203 | -9.16164 | 14886 ft | 394 kts | 185° |
| 2026-05-06 00:07 | 38.41446 | -9.15993 | 15333 ft | 401 kts | 172° |
| 2026-05-06 00:08 | 38.38753 | -9.14991 | 15797 ft | 408 kts | 158° |
| 2026-05-06 00:08 | 38.36262 | -9.13223 | 16238 ft | 413 kts | 148° |
| 2026-05-06 00:08 | 38.33876 | -9.11140 | 16687 ft | 416 kts | 146° |
| 2026-05-06 00:08 | 38.31495 | -9.09019 | 17155 ft | 418 kts | 146° |
| 2026-05-06 00:09 | 38.29098 | -9.06895 | 17600 ft | 421 kts | 146° |
| 2026-05-06 00:09 | 38.26679 | -9.04764 | 18076 ft | 423 kts | 146° |
| 2026-05-06 00:09 | 38.24281 | -9.02657 | 18504 ft | 426 kts | 147° |
| 2026-05-06 00:09 | 38.21828 | -9.00505 | 18888 ft | 429 kts | 147° |
| 2026-05-06 00:10 | 38.19366 | -8.98347 | 19264 ft | 432 kts | 147° |
| 2026-05-06 00:10 | 38.16878 | -8.96173 | 19661 ft | 434 kts | 147° |
| 2026-05-06 00:10 | 38.14384 | -8.93994 | 20027 ft | 437 kts | 147° |
| 2026-05-06 00:10 | 38.11868 | -8.91802 | 20420 ft | 439 kts | 147° |
| 2026-05-06 00:11 | 38.09332 | -8.89601 | 20792 ft | 442 kts | 148° |
| 2026-05-06 00:11 | 38.06704 | -8.87588 | 21146 ft | 442 kts | 155° |
| 2026-05-06 00:11 | 38.03915 | -8.85904 | 21520 ft | 443 kts | 158° |
| 2026-05-06 00:11 | 38.01099 | -8.84308 | 21892 ft | 445 kts | 158° |
| 2026-05-06 00:12 | 37.98290 | -8.82725 | 22249 ft | 447 kts | 158° |
| 2026-05-06 00:12 | 37.95441 | -8.81120 | 22606 ft | 450 kts | 158° |
| 2026-05-06 00:12 | 37.92571 | -8.79501 | 22948 ft | 452 kts | 159° |
| 2026-05-06 00:12 | 37.89688 | -8.77878 | 23297 ft | 454 kts | 159° |
| 2026-05-06 00:13 | 37.86783 | -8.76245 | 23647 ft | 457 kts | 159° |
| 2026-05-06 00:13 | 37.83866 | -8.74607 | 23943 ft | 458 kts | 159° |
| 2026-05-06 00:13 | 37.80946 | -8.72967 | 24226 ft | 460 kts | 159° |
| 2026-05-06 00:13 | 37.78011 | -8.71318 | 24497 ft | 462 kts | 160° |
| 2026-05-06 00:14 | 37.75066 | -8.69661 | 24773 ft | 465 kts | 160° |
| 2026-05-06 00:14 | 37.72132 | -8.68011 | 25037 ft | 467 kts | 160° |
| 2026-05-06 00:14 | 37.69160 | -8.66340 | 25303 ft | 468 kts | 160° |
| 2026-05-06 00:14 | 37.66178 | -8.64664 | 25558 ft | 470 kts | 160° |
| 2026-05-06 00:15 | 37.63153 | -8.63095 | 25789 ft | 470 kts | 163° |
| 2026-05-06 00:15 | 37.60091 | -8.61666 | 26088 ft | 470 kts | 164° |
| 2026-05-06 00:15 | 37.56999 | -8.60294 | 26344 ft | 471 kts | 165° |
| 2026-05-06 00:15 | 37.53896 | -8.58930 | 26589 ft | 473 kts | 165° |
| 2026-05-06 00:16 | 37.50784 | -8.57551 | 26830 ft | 475 kts | 165° |
| 2026-05-06 00:16 | 37.47660 | -8.56150 | 27073 ft | 476 kts | 165° |
| 2026-05-06 00:16 | 37.44537 | -8.54736 | 27312 ft | 478 kts | 165° |
| 2026-05-06 00:16 | 37.41405 | -8.53313 | 27532 ft | 480 kts | 165° |
| 2026-05-06 00:17 | 37.38302 | -8.51899 | 27779 ft | 480 kts | 165° |
| 2026-05-06 00:17 | 37.35157 | -8.50464 | 28009 ft | 481 kts | 165° |
| 2026-05-06 00:17 | 37.32001 | -8.49022 | 28215 ft | 483 kts | 165° |
| 2026-05-06 00:17 | 37.28840 | -8.47576 | 28480 ft | 483 kts | 165° |
| 2026-05-06 00:18 | 37.25665 | -8.46125 | 28654 ft | 486 kts | 165° |
| 2026-05-06 00:18 | 37.22481 | -8.44673 | 28874 ft | 487 kts | 165° |
| 2026-05-06 00:18 | 37.19300 | -8.43220 | 29187 ft | 486 kts | 165° |
| 2026-05-06 00:18 | 37.16122 | -8.41765 | 29448 ft | 485 kts | 165° |
| 2026-05-06 00:19 | 37.12942 | -8.40317 | 29664 ft | 486 kts | 165° |
| 2026-05-06 00:19 | 37.09765 | -8.38872 | 29948 ft | 485 kts | 165° |
| 2026-05-06 00:19 | 37.06630 | -8.37449 | 30219 ft | 484 kts | 165° |
| 2026-05-06 00:19 | 37.03428 | -8.35996 | 30446 ft | 484 kts | 165° |
| 2026-05-06 00:20 | 37.00266 | -8.34562 | 30665 ft | 483 kts | 165° |
| 2026-05-06 00:20 | 36.97100 | -8.33127 | 30837 ft | 484 kts | 165° |
| 2026-05-06 00:20 | 36.93936 | -8.31694 | 30999 ft | 484 kts | 165° |
| 2026-05-06 00:20 | 36.90815 | -8.30282 | 31219 ft | 483 kts | 165° |
| 2026-05-06 00:21 | 36.87655 | -8.28854 | 31455 ft | 482 kts | 165° |
| 2026-05-06 00:21 | 36.84503 | -8.27430 | 31680 ft | 481 kts | 165° |
| 2026-05-06 00:21 | 36.81352 | -8.26009 | 31879 ft | 480 kts | 165° |
| 2026-05-06 00:21 | 36.78203 | -8.24590 | 32111 ft | 479 kts | 165° |
| 2026-05-06 00:22 | 36.75066 | -8.23177 | 32324 ft | 479 kts | 165° |
| 2026-05-06 00:22 | 36.71930 | -8.21766 | 32537 ft | 478 kts | 165° |
| 2026-05-06 00:22 | 36.68807 | -8.20361 | 32739 ft | 476 kts | 165° |
| 2026-05-06 00:22 | 36.65692 | -8.18961 | 32946 ft | 475 kts | 165° |
| 2026-05-06 00:23 | 36.62619 | -8.17581 | 33128 ft | 475 kts | 165° |
| 2026-05-06 00:23 | 36.59505 | -8.16185 | 33289 ft | 475 kts | 165° |
| 2026-05-06 00:23 | 36.56398 | -8.14794 | 33473 ft | 474 kts | 165° |
| 2026-05-06 00:23 | 36.53294 | -8.13403 | 33629 ft | 474 kts | 165° |
| 2026-05-06 00:24 | 36.50184 | -8.12012 | 33793 ft | 474 kts | 166° |
| 2026-05-06 00:24 | 36.47080 | -8.10624 | 33929 ft | 473 kts | 166° |
| 2026-05-06 00:24 | 36.45028 | -8.09708 | 34033 ft | 473 kts | 166° |
| 2026-05-06 00:24 | 36.41935 | -8.08328 | 34176 ft | 472 kts | 166° |
| 2026-05-06 00:25 | 36.37821 | -8.06495 | 34324 ft | 472 kts | 166° |
| 2026-05-06 00:25 | 36.34732 | -8.05120 | 34449 ft | 472 kts | 166° |
| 2026-05-06 00:25 | 36.32674 | -8.04205 | 34529 ft | 472 kts | 166° |
| 2026-05-06 00:26 | 36.26456 | -8.01443 | 34744 ft | 472 kts | 166° |
| 2026-05-06 00:26 | 36.23399 | -8.00086 | 34857 ft | 472 kts | 166° |
| 2026-05-06 00:26 | 36.20306 | -7.98714 | 34928 ft | 472 kts | 166° |
| 2026-05-06 00:27 | 36.14116 | -7.95973 | 35127 ft | 472 kts | 166° |
| 2026-05-06 00:27 | 36.07930 | -7.93238 | 35313 ft | 472 kts | 166° |
| 2026-05-06 00:28 | 36.01743 | -7.90506 | 35517 ft | 472 kts | 166° |
| 2026-05-06 00:28 | 35.95462 | -7.88335 | 35626 ft | 463 kts | 178° |
| 2026-05-06 00:29 | 35.89135 | -7.87516 | 35806 ft | 459 kts | 181° |
| 2026-05-06 00:29 | 35.82767 | -7.86936 | 35956 ft | 459 kts | 181° |
| 2026-05-06 00:30 | 35.76385 | -7.86384 | 36043 ft | 460 kts | 181° |
| 2026-05-06 00:30 | 35.69984 | -7.85826 | 36042 ft | 460 kts | 181° |
| 2026-05-06 00:31 | 35.63601 | -7.85265 | 36042 ft | 459 kts | 181° |
| 2026-05-06 00:31 | 35.57259 | -7.84699 | 36042 ft | 459 kts | 181° |
| 2026-05-06 00:32 | 35.50888 | -7.84125 | 36040 ft | 459 kts | 181° |
| 2026-05-06 00:32 | 35.44503 | -7.83550 | 36042 ft | 459 kts | 181° |
| 2026-05-06 00:33 | 35.38133 | -7.82986 | 36045 ft | 459 kts | 181° |
| 2026-05-06 00:33 | 35.31754 | -7.82449 | 36046 ft | 459 kts | 181° |
| 2026-05-06 00:34 | 35.25419 | -7.81920 | 36039 ft | 459 kts | 181° |
| 2026-05-06 00:34 | 35.19042 | -7.81385 | 36046 ft | 459 kts | 181° |
| 2026-05-06 00:35 | 35.12660 | -7.80848 | 36043 ft | 459 kts | 181° |
| 2026-05-06 00:35 | 35.06292 | -7.80313 | 36041 ft | 459 kts | 181° |
| 2026-05-06 00:36 | 34.99927 | -7.79780 | 36043 ft | 459 kts | 181° |
| 2026-05-06 00:36 | 34.93558 | -7.79247 | 36048 ft | 459 kts | 181° |
| 2026-05-06 00:37 | 34.87180 | -7.78714 | 36052 ft | 459 kts | 181° |
| 2026-05-06 00:37 | 34.80854 | -7.78186 | 36051 ft | 459 kts | 181° |
| 2026-05-06 00:38 | 34.74486 | -7.77655 | 36053 ft | 459 kts | 181° |
| 2026-05-06 00:38 | 34.68111 | -7.77165 | 36051 ft | 459 kts | 182° |
| 2026-05-06 00:39 | 34.61728 | -7.76738 | 36051 ft | 459 kts | 182° |
| 2026-05-06 00:39 | 34.55351 | -7.76310 | 36053 ft | 459 kts | 182° |
| 2026-05-06 00:40 | 34.48970 | -7.75871 | 36056 ft | 459 kts | 182° |
| 2026-05-06 00:40 | 34.42626 | -7.75430 | 36053 ft | 459 kts | 182° |
| 2026-05-06 00:41 | 34.36249 | -7.74987 | 36054 ft | 459 kts | 182° |
| 2026-05-06 00:41 | 34.29865 | -7.74544 | 36054 ft | 459 kts | 182° |
| 2026-05-06 00:42 | 34.23485 | -7.74102 | 36049 ft | 459 kts | 182° |
| 2026-05-06 00:42 | 34.17127 | -7.73660 | 36050 ft | 458 kts | 182° |
| 2026-05-06 00:43 | 34.10799 | -7.73100 | 36049 ft | 459 kts | 181° |
| 2026-05-06 00:43 | 34.04432 | -7.72475 | 36051 ft | 459 kts | 181° |
| 2026-05-06 00:44 | 33.98069 | -7.71866 | 36048 ft | 458 kts | 181° |
| 2026-05-06 00:44 | 33.91715 | -7.71274 | 36039 ft | 457 kts | 182° |
| 2026-05-06 00:45 | 33.85369 | -7.70691 | 36037 ft | 457 kts | 182° |
| 2026-05-06 00:45 | 33.79022 | -7.70110 | 36041 ft | 457 kts | 182° |
| 2026-05-06 00:46 | 33.72727 | -7.69534 | 36048 ft | 457 kts | 182° |
| 2026-05-06 00:46 | 33.66397 | -7.68953 | 36045 ft | 455 kts | 182° |
| 2026-05-06 00:47 | 33.60083 | -7.68374 | 36049 ft | 454 kts | 182° |
| 2026-05-06 00:47 | 33.53780 | -7.67725 | 36049 ft | 458 kts | 178° |
| 2026-05-06 00:48 | 33.47538 | -7.65738 | 36047 ft | 468 kts | 169° |
| 2026-05-06 00:48 | 33.41402 | -7.63194 | 36045 ft | 470 kts | 168° |
| 2026-05-06 00:49 | 33.35244 | -7.60544 | 36051 ft | 469 kts | 168° |
| 2026-05-06 00:49 | 33.29077 | -7.57913 | 36049 ft | 470 kts | 169° |
| 2026-05-06 00:50 | 33.22913 | -7.55312 | 36050 ft | 470 kts | 169° |
| 2026-05-06 00:50 | 33.16774 | -7.52732 | 36043 ft | 470 kts | 169° |
| 2026-05-06 00:51 | 33.10575 | -7.50332 | 36035 ft | 464 kts | 174° |
| 2026-05-06 00:51 | 33.04321 | -7.48467 | 36028 ft | 462 kts | 175° |
| 2026-05-06 00:52 | 32.98067 | -7.46704 | 36020 ft | 462 kts | 175° |
| 2026-05-06 00:52 | 32.91803 | -7.44951 | 36018 ft | 461 kts | 176° |
| 2026-05-06 00:53 | 32.85604 | -7.43204 | 36028 ft | 459 kts | 176° |
| 2026-05-06 00:53 | 32.79374 | -7.41452 | 36025 ft | 459 kts | 176° |
| 2026-05-06 00:54 | 32.73155 | -7.39709 | 36027 ft | 459 kts | 176° |
| 2026-05-06 00:54 | 32.66980 | -7.37979 | 35970 ft | 459 kts | 177° |
| 2026-05-06 00:55 | 32.60778 | -7.36238 | 36020 ft | 457 kts | 178° |
| 2026-05-06 00:55 | 32.54593 | -7.34501 | 36019 ft | 456 kts | 178° |
| 2026-05-06 00:56 | 32.48413 | -7.32770 | 36016 ft | 456 kts | 178° |
| 2026-05-06 00:56 | 32.42217 | -7.31040 | 36024 ft | 456 kts | 178° |
| 2026-05-06 00:57 | 32.36085 | -7.29331 | 36009 ft | 455 kts | 178° |
| 2026-05-06 00:57 | 32.29914 | -7.27612 | 36009 ft | 454 kts | 178° |
| 2026-05-06 00:58 | 32.23761 | -7.25905 | 36010 ft | 454 kts | 179° |
| 2026-05-06 00:58 | 32.17609 | -7.24201 | 36012 ft | 454 kts | 178° |
| 2026-05-06 00:59 | 32.11451 | -7.22492 | 36008 ft | 454 kts | 179° |
| 2026-05-06 00:59 | 32.05313 | -7.20789 | 36012 ft | 452 kts | 179° |
| 2026-05-06 01:00 | 31.99225 | -7.19104 | 36011 ft | 452 kts | 179° |
| 2026-05-06 01:00 | 31.93081 | -7.17409 | 36012 ft | 452 kts | 179° |
| 2026-05-06 01:01 | 31.86958 | -7.15724 | 35976 ft | 452 kts | 179° |
| 2026-05-06 01:01 | 31.80842 | -7.14041 | 36007 ft | 451 kts | 179° |
| 2026-05-06 01:02 | 31.74736 | -7.12362 | 36003 ft | 451 kts | 179° |
| 2026-05-06 01:02 | 31.68630 | -7.10686 | 36005 ft | 450 kts | 179° |
| 2026-05-06 01:03 | 31.62524 | -7.09012 | 35994 ft | 451 kts | 179° |
| 2026-05-06 01:03 | 31.56448 | -7.07349 | 35998 ft | 451 kts | 179° |
| 2026-05-06 01:04 | 31.50335 | -7.05677 | 35984 ft | 451 kts | 179° |
| 2026-05-06 01:04 | 31.44221 | -7.04010 | 35986 ft | 451 kts | 179° |
| 2026-05-06 01:05 | 31.38115 | -7.02350 | 35973 ft | 452 kts | 178° |
| 2026-05-06 01:05 | 31.31985 | -7.00674 | 35941 ft | 451 kts | 179° |
| 2026-05-06 01:06 | 31.25852 | -6.99007 | 35967 ft | 453 kts | 178° |
| 2026-05-06 01:06 | 31.19747 | -6.97356 | 35959 ft | 453 kts | 179° |
| 2026-05-06 01:07 | 31.13600 | -6.95692 | 35971 ft | 453 kts | 179° |
| 2026-05-06 01:07 | 31.07461 | -6.94033 | 35985 ft | 453 kts | 179° |
| 2026-05-06 01:08 | 31.01311 | -6.92306 | 35997 ft | 460 kts | 174° |
| 2026-05-06 01:08 | 30.98313 | -6.90992 | 35997 ft | 474 kts | 166° |
| 2026-05-06 01:08 | 30.95393 | -6.89058 | 35996 ft | 490 kts | 155° |
| 2026-05-06 01:08 | 30.92732 | -6.86466 | 35929 ft | 508 kts | 144° |
| 2026-05-06 01:09 | 30.90471 | -6.83224 | 35926 ft | 525 kts | 132° |
| 2026-05-06 01:09 | 30.86670 | -6.75858 | 35927 ft | 535 kts | 127° |
| 2026-05-06 01:10 | 30.83050 | -6.68256 | 35938 ft | 537 kts | 127° |
| 2026-05-06 01:10 | 30.79400 | -6.60676 | 35938 ft | 536 kts | 127° |
| 2026-05-06 01:11 | 30.75710 | -6.53156 | 35931 ft | 533 kts | 128° |
| 2026-05-06 01:11 | 30.72041 | -6.45741 | 35927 ft | 531 kts | 128° |
| 2026-05-06 01:12 | 30.68348 | -6.38308 | 35942 ft | 531 kts | 128° |
| 2026-05-06 01:12 | 30.64649 | -6.30869 | 35940 ft | 531 kts | 128° |
| 2026-05-06 01:13 | 30.60951 | -6.23437 | 35935 ft | 531 kts | 128° |
| 2026-05-06 01:13 | 30.57875 | -6.17268 | 35936 ft | 531 kts | 128° |
| 2026-05-06 01:14 | 30.51711 | -6.04932 | 35920 ft | 532 kts | 128° |
| 2026-05-06 01:14 | 30.48594 | -5.98713 | 35916 ft | 532 kts | 128° |
| 2026-05-06 01:15 | 30.44886 | -5.91322 | 35913 ft | 532 kts | 128° |
| 2026-05-06 01:15 | 30.41160 | -5.83910 | 35912 ft | 532 kts | 128° |
| 2026-05-06 01:16 | 30.37425 | -5.76492 | 35911 ft | 532 kts | 128° |
| 2026-05-06 01:16 | 30.33511 | -5.69242 | 35906 ft | 521 kts | 137° |
| 2026-05-06 01:17 | 30.31123 | -5.66240 | 35914 ft | 507 kts | 148° |
| 2026-05-06 01:17 | 30.28374 | -5.63801 | 35914 ft | 490 kts | 159° |
| 2026-05-06 01:17 | 30.22391 | -5.60278 | 35912 ft | 478 kts | 166° |
| 2026-05-06 01:18 | 30.16319 | -5.57177 | 35908 ft | 476 kts | 167° |
| 2026-05-06 01:18 | 30.10237 | -5.54119 | 35907 ft | 477 kts | 167° |
| 2026-05-06 01:19 | 30.04156 | -5.51019 | 35903 ft | 477 kts | 167° |
| 2026-05-06 01:19 | 29.98127 | -5.47921 | 35883 ft | 477 kts | 167° |
| 2026-05-06 01:20 | 29.92085 | -5.44812 | 35892 ft | 475 kts | 167° |
| 2026-05-06 01:20 | 29.86029 | -5.41704 | 35891 ft | 475 kts | 167° |
| 2026-05-06 01:21 | 29.79984 | -5.38608 | 35894 ft | 475 kts | 167° |
| 2026-05-06 01:21 | 29.73944 | -5.35518 | 35891 ft | 475 kts | 167° |
| 2026-05-06 01:22 | 29.67907 | -5.32434 | 35867 ft | 474 kts | 167° |
| 2026-05-06 01:22 | 29.61907 | -5.29373 | 35881 ft | 475 kts | 167° |
| 2026-05-06 01:23 | 29.55855 | -5.26289 | 35878 ft | 475 kts | 167° |
| 2026-05-06 01:23 | 29.49814 | -5.23214 | 35879 ft | 474 kts | 167° |
| 2026-05-06 01:24 | 29.43779 | -5.20147 | 35883 ft | 474 kts | 167° |
| 2026-05-06 01:24 | 29.37766 | -5.17096 | 35879 ft | 475 kts | 167° |
| 2026-05-06 01:25 | 29.31718 | -5.14031 | 35879 ft | 475 kts | 167° |
| 2026-05-06 01:25 | 29.25661 | -5.10964 | 35875 ft | 475 kts | 167° |
| 2026-05-06 01:26 | 29.19615 | -5.07907 | 35876 ft | 475 kts | 167° |
| 2026-05-06 01:26 | 29.13566 | -5.04852 | 35862 ft | 475 kts | 167° |
| 2026-05-06 01:27 | 29.07560 | -5.01820 | 35870 ft | 474 kts | 167° |
| 2026-05-06 01:27 | 29.01528 | -4.98767 | 35864 ft | 474 kts | 166° |
| 2026-05-06 01:28 | 28.95496 | -4.95705 | 35865 ft | 474 kts | 166° |
| 2026-05-06 01:28 | 28.89449 | -4.92655 | 35865 ft | 475 kts | 166° |
| 2026-05-06 01:29 | 28.83384 | -4.89619 | 35861 ft | 476 kts | 166° |
| 2026-05-06 01:29 | 28.77358 | -4.86617 | 35856 ft | 475 kts | 166° |
| 2026-05-06 01:30 | 28.71284 | -4.83599 | 35856 ft | 475 kts | 166° |
| 2026-05-06 01:30 | 28.65223 | -4.80576 | 35856 ft | 475 kts | 166° |
| 2026-05-06 01:31 | 28.59159 | -4.77537 | 35854 ft | 475 kts | 166° |
| 2026-05-06 01:31 | 28.53132 | -4.74535 | 35850 ft | 476 kts | 166° |
| 2026-05-06 01:32 | 28.47062 | -4.71523 | 35848 ft | 476 kts | 166° |
| 2026-05-06 01:32 | 28.40985 | -4.68506 | 35848 ft | 476 kts | 166° |
| 2026-05-06 01:33 | 28.34907 | -4.65484 | 35848 ft | 476 kts | 166° |
| 2026-05-06 01:33 | 28.28839 | -4.62474 | 35818 ft | 476 kts | 166° |
| 2026-05-06 01:34 | 28.22801 | -4.59484 | 35843 ft | 477 kts | 166° |
| 2026-05-06 01:34 | 28.16699 | -4.56466 | 35832 ft | 478 kts | 166° |
| 2026-05-06 01:35 | 28.10567 | -4.53437 | 35840 ft | 481 kts | 166° |
| 2026-05-06 01:35 | 28.04419 | -4.50403 | 35840 ft | 481 kts | 166° |
| 2026-05-06 01:36 | 27.98291 | -4.47513 | 35818 ft | 477 kts | 169° |
| 2026-05-06 01:36 | 27.92048 | -4.44995 | 35839 ft | 477 kts | 171° |
| 2026-05-06 01:37 | 27.85770 | -4.42507 | 35840 ft | 478 kts | 170° |
| 2026-05-06 01:37 | 27.79499 | -4.39959 | 35841 ft | 479 kts | 170° |
| 2026-05-06 01:38 | 27.73237 | -4.37383 | 35840 ft | 479 kts | 169° |
| 2026-05-06 01:38 | 27.66972 | -4.34799 | 35841 ft | 479 kts | 169° |
| 2026-05-06 01:39 | 27.60717 | -4.32224 | 35840 ft | 478 kts | 170° |
| 2026-05-06 01:39 | 27.54498 | -4.29672 | 35839 ft | 478 kts | 169° |
| 2026-05-06 01:40 | 27.48227 | -4.27102 | 35842 ft | 478 kts | 170° |
| 2026-05-06 01:40 | 27.41962 | -4.24538 | 35842 ft | 479 kts | 169° |
| 2026-05-06 01:41 | 27.35733 | -4.21990 | 35845 ft | 478 kts | 170° |
| 2026-05-06 01:41 | 27.29474 | -4.19436 | 35845 ft | 478 kts | 170° |
| 2026-05-06 01:42 | 27.23219 | -4.16882 | 35853 ft | 478 kts | 170° |
| 2026-05-06 01:42 | 27.16956 | -4.14312 | 35859 ft | 479 kts | 170° |
| 2026-05-06 01:43 | 27.10733 | -4.11753 | 35832 ft | 479 kts | 170° |
| 2026-05-06 01:43 | 27.04487 | -4.09186 | 35863 ft | 477 kts | 170° |
| 2026-05-06 01:44 | 26.98250 | -4.06627 | 35864 ft | 477 kts | 170° |
| 2026-05-06 01:44 | 26.92007 | -4.04076 | 35865 ft | 476 kts | 170° |
| 2026-05-06 01:45 | 26.85776 | -4.01532 | 35866 ft | 476 kts | 170° |
| 2026-05-06 01:45 | 26.79584 | -3.99004 | 35849 ft | 476 kts | 170° |
| 2026-05-06 01:46 | 26.73327 | -3.96456 | 35870 ft | 480 kts | 170° |
| 2026-05-06 01:46 | 26.67050 | -3.93899 | 35871 ft | 480 kts | 170° |
| 2026-05-06 01:47 | 26.60757 | -3.91336 | 35867 ft | 480 kts | 170° |
| 2026-05-06 01:47 | 26.54505 | -3.88794 | 35867 ft | 480 kts | 170° |
| 2026-05-06 01:48 | 26.48218 | -3.86241 | 35866 ft | 480 kts | 170° |
| 2026-05-06 01:48 | 26.41928 | -3.83691 | 35863 ft | 481 kts | 170° |
| 2026-05-06 01:49 | 26.35616 | -3.81135 | 35851 ft | 481 kts | 170° |